createdAt,value
2022-08-26T00:01:29.909Z,20.34
2022-08-26T00:04:31.773Z,20.39
2022-08-26T00:07:33.514Z,20.45
2022-08-26T00:10:37.078Z,20.44
2022-08-26T00:13:39.590Z,20.47
2022-08-26T00:16:49.030Z,20.39
2022-08-26T00:19:50.845Z,20.21
2022-08-26T00:22:54.678Z,20.27
2022-08-26T00:25:57.924Z,20.30
2022-08-26T00:29:00.435Z,20.31
2022-08-26T00:32:02.382Z,20.28
2022-08-26T00:35:06.170Z,20.35
2022-08-26T00:38:07.876Z,20.30
2022-08-26T00:41:12.454Z,20.35
2022-08-26T00:44:14.444Z,20.36
2022-08-26T00:47:24.394Z,20.36
2022-08-26T00:50:29.498Z,20.42
2022-08-26T00:53:34.406Z,20.45
2022-08-26T00:56:41.800Z,20.46
2022-08-26T00:59:45.386Z,20.44
2022-08-26T01:02:48.193Z,20.44
2022-08-26T01:05:51.607Z,20.47
2022-08-26T01:08:53.644Z,20.35
2022-08-26T01:11:59.070Z,20.30
2022-08-26T01:15:01.394Z,20.32
2022-08-26T01:18:04.274Z,20.36
2022-08-26T01:21:11.214Z,20.35
2022-08-26T01:24:14.473Z,20.36
2022-08-26T01:27:18.802Z,20.34
2022-08-26T01:30:20.741Z,20.20
2022-08-26T01:33:26.721Z,20.16
2022-08-26T01:36:28.677Z,20.10
2022-08-26T01:39:32.213Z,20.15
2022-08-26T01:42:34.062Z,20.11
2022-08-26T01:45:37.268Z,20.05
2022-08-26T01:48:40.059Z,20.02
2022-08-26T01:51:41.959Z,20.09
2022-08-26T01:54:46.299Z,20.11
2022-08-26T01:57:53.794Z,20.14
2022-08-26T02:00:58.732Z,20.11
2022-08-26T02:04:05.224Z,20.11
2022-08-26T02:07:08.619Z,20.01
2022-08-26T02:10:12.043Z,19.95
2022-08-26T02:13:13.849Z,19.93
2022-08-26T02:16:17.673Z,19.89
2022-08-26T02:19:20.699Z,19.69
2022-08-26T02:22:24.700Z,19.69
2022-08-26T02:25:30.967Z,19.78
2022-08-26T02:28:44.987Z,19.76
2022-08-26T02:31:46.749Z,19.60
2022-08-26T02:34:48.495Z,19.71
2022-08-26T02:37:50.914Z,19.69
2022-08-26T02:40:54.032Z,19.53
2022-08-26T02:43:55.697Z,19.58
2022-08-26T02:46:58.074Z,19.44
2022-08-26T02:50:00.357Z,19.35
2022-08-26T02:53:02.251Z,19.38
2022-08-26T02:56:07.233Z,19.40
2022-08-26T02:59:08.976Z,19.49
2022-08-26T03:02:10.962Z,19.43
2022-08-26T03:05:13.209Z,19.37
2022-08-26T03:08:14.927Z,19.27
2022-08-26T03:11:18.393Z,19.10
2022-08-26T03:14:20.124Z,18.98
2022-08-26T03:17:22.603Z,18.82
2022-08-26T03:20:24.306Z,18.96
2022-08-26T03:23:26.170Z,19.01
2022-08-26T03:26:29.332Z,19.11
2022-08-26T03:29:31.185Z,19.23
2022-08-26T03:32:34.859Z,19.31
2022-08-26T03:35:36.911Z,19.30
2022-08-26T03:38:38.819Z,19.30
2022-08-26T03:41:42.555Z,19.20
2022-08-26T03:44:44.265Z,19.12
2022-08-26T03:47:46.583Z,19.06
2022-08-26T03:50:49.141Z,19.09
2022-08-26T03:53:53.158Z,19.09
2022-08-26T03:56:56.355Z,19.17
2022-08-26T03:59:58.920Z,19.21
2022-08-26T04:03:00.671Z,19.27
2022-08-26T04:06:02.358Z,19.28
2022-08-26T04:09:05.026Z,19.30
2022-08-26T04:12:08.629Z,19.34
2022-08-26T04:15:11.340Z,19.22
2022-08-26T04:18:13.008Z,19.13
2022-08-26T04:21:15.301Z,19.16
2022-08-26T04:24:17.554Z,19.15
2022-08-26T04:27:20.832Z,18.99
2022-08-26T04:30:22.528Z,19.07
2022-08-26T04:33:32.562Z,19.05
2022-08-26T04:36:35.014Z,18.81
2022-08-26T04:39:37.476Z,18.52
2022-08-26T04:42:40.805Z,18.33
2022-08-26T04:45:42.729Z,18.36
2022-08-26T04:48:44.827Z,18.59
2022-08-26T04:51:47.663Z,18.67
2022-08-26T04:54:49.676Z,18.63
2022-08-26T04:57:52.906Z,18.58
2022-08-26T05:00:55.544Z,18.71
2022-08-26T05:03:57.640Z,18.77
2022-08-26T05:07:02.447Z,18.90
2022-08-26T05:10:05.991Z,18.95
2022-08-26T05:13:15.119Z,19.07
2022-08-26T05:16:17.523Z,19.10
2022-08-26T05:19:19.664Z,19.16
2022-08-26T05:22:22.757Z,19.23
2022-08-26T05:25:24.684Z,19.29
2022-08-26T05:28:30.652Z,19.31
2022-08-26T05:31:33.225Z,19.39
2022-08-26T05:34:34.944Z,19.42
2022-08-26T05:37:37.139Z,19.46
2022-08-26T05:40:40.882Z,19.46
2022-08-26T05:43:44.208Z,19.48
2022-08-26T05:46:46.085Z,19.52
2022-08-26T05:49:51.346Z,19.54
2022-08-26T05:52:53.474Z,19.58
2022-08-26T05:55:55.348Z,19.62
2022-08-26T05:58:59.813Z,19.66
2022-08-26T06:02:02.314Z,19.71
2022-08-26T06:05:05.176Z,19.72
2022-08-26T06:15:33.799Z,19.82
2022-08-26T06:18:36.919Z,19.81
2022-08-26T06:21:40.146Z,19.80
2022-08-26T06:24:41.922Z,19.90
2022-08-26T06:27:46.939Z,19.89
2022-08-26T06:30:50.617Z,19.96
2022-08-26T06:33:53.063Z,20.03
2022-08-26T06:36:56.758Z,20.01
2022-08-26T06:39:58.757Z,20.00
2022-08-26T06:43:00.456Z,20.01
2022-08-26T06:46:04.972Z,20.06
2022-08-26T06:49:06.764Z,20.10
2022-08-26T06:52:09.915Z,20.28
2022-08-26T06:55:11.681Z,20.14
2022-08-26T06:58:13.817Z,20.21
2022-08-26T07:01:18.214Z,20.21
2022-08-26T07:04:21.931Z,20.26
2022-08-26T07:07:24.674Z,20.34
2022-08-26T07:10:26.669Z,20.37
2022-08-26T07:13:29.891Z,20.38
2022-08-26T07:16:34.151Z,20.53
2022-08-26T07:19:37.623Z,20.58
2022-08-26T07:22:39.473Z,20.59
2022-08-26T07:25:41.813Z,20.64
2022-08-26T07:28:44.167Z,20.80
2022-08-26T07:31:47.278Z,20.90
2022-08-26T07:34:50.422Z,20.94
2022-08-26T07:37:56.804Z,21.06
2022-08-26T07:40:58.787Z,21.06
2022-08-26T07:44:00.438Z,21.19
2022-08-26T07:47:03.853Z,21.23
2022-08-26T07:50:12.278Z,21.39
2022-08-26T07:53:14.704Z,21.45
2022-08-26T07:56:20.206Z,21.46
2022-08-26T07:59:22.245Z,21.57
2022-08-26T08:02:26.845Z,21.51
2022-08-26T08:05:33.472Z,21.37
2022-08-26T08:08:35.846Z,21.46
2022-08-26T08:11:37.527Z,21.59
2022-08-26T08:14:39.309Z,21.45
2022-08-26T08:17:42.643Z,21.33
2022-08-26T08:20:47.614Z,21.47
2022-08-26T08:24:01.000Z,21.53
2022-08-26T08:27:02.676Z,21.55
2022-08-26T08:30:05.358Z,21.70
2022-08-26T08:33:08.860Z,21.93
2022-08-26T08:36:12.455Z,21.91
2022-08-26T08:39:20.389Z,21.86
2022-08-26T08:42:44.511Z,22.01
2022-08-26T08:45:49.569Z,22.04
2022-08-26T08:48:54.808Z,21.92
2022-08-26T08:51:58.652Z,22.00
2022-08-26T08:55:01.230Z,22.14
2022-08-26T08:58:05.544Z,22.15
2022-08-26T09:01:14.707Z,22.19
2022-08-26T09:04:31.300Z,22.31
2022-08-26T09:07:37.533Z,22.29
2022-08-26T09:10:40.504Z,22.38
2022-08-26T09:13:44.644Z,22.38
2022-08-26T09:16:50.648Z,22.43
2022-08-26T09:19:54.082Z,22.46
2022-08-26T09:22:57.835Z,22.54
2022-08-26T09:26:00.369Z,22.63
2022-08-26T09:29:04.366Z,22.56
2022-08-26T09:32:23.685Z,22.69
2022-08-26T09:35:27.424Z,22.76
2022-08-26T09:38:33.774Z,22.78
2022-08-26T09:41:35.453Z,22.89
2022-08-26T09:44:52.413Z,22.85
2022-08-26T09:47:56.184Z,22.86
2022-08-26T09:50:58.999Z,22.91
2022-08-26T09:54:03.642Z,23.05
2022-08-26T09:57:12.412Z,23.21
2022-08-26T10:00:26.591Z,23.14
2022-08-26T10:03:31.388Z,23.36
2022-08-26T10:06:36.357Z,23.33
2022-08-26T10:09:41.226Z,23.54
2022-08-26T10:12:47.702Z,23.65
2022-08-26T10:15:54.115Z,23.77
2022-08-26T10:19:00.675Z,23.96
2022-08-26T10:22:04.042Z,23.98
2022-08-26T10:25:09.318Z,24.07
2022-08-26T10:28:17.764Z,24.31
2022-08-26T10:31:27.769Z,24.29
2022-08-26T10:34:29.798Z,24.28
2022-08-26T10:37:34.897Z,24.55
2022-08-26T10:40:43.641Z,24.51
2022-08-26T10:43:48.640Z,24.38
2022-08-26T10:46:53.766Z,24.37
2022-08-26T10:50:00.481Z,24.32
2022-08-26T10:53:08.757Z,24.40
2022-08-26T10:56:19.169Z,24.69
2022-08-26T10:59:26.413Z,24.84
2022-08-26T11:02:33.854Z,24.62
2022-08-26T11:05:35.514Z,24.47
2022-08-26T11:08:45.101Z,24.29
2022-08-26T11:11:49.476Z,24.51
2022-08-26T11:14:58.766Z,24.57
2022-08-26T11:18:03.885Z,24.69
2022-08-26T11:21:36.094Z,24.89
2022-08-26T11:24:59.256Z,24.89
2022-08-26T11:28:03.138Z,24.98
2022-08-26T11:31:07.940Z,25.07
2022-08-26T11:34:13.169Z,25.26
2022-08-26T11:37:17.274Z,25.36
2022-08-26T11:40:21.041Z,25.43
2022-08-26T11:43:29.783Z,25.78
2022-08-26T11:46:32.223Z,26.01
2022-08-26T11:49:34.026Z,26.02
2022-08-26T11:52:35.781Z,26.17
2022-08-26T11:55:41.745Z,26.32
2022-08-26T11:58:45.603Z,26.29
2022-08-26T12:01:49.678Z,26.25
2022-08-26T12:04:51.851Z,26.17
2022-08-26T12:07:54.059Z,26.16
2022-08-26T12:11:02.433Z,26.21
2022-08-26T12:14:07.412Z,26.18
2022-08-26T12:17:10.407Z,26.19
2022-08-26T12:20:28.715Z,26.22
2022-08-26T12:23:37.453Z,26.27
2022-08-26T12:26:39.412Z,26.42
2022-08-26T12:29:42.566Z,26.33
2022-08-26T12:32:57.659Z,26.24
2022-08-26T12:36:00.360Z,26.02
2022-08-26T12:39:06.777Z,26.04
2022-08-26T12:42:21.711Z,26.13
2022-08-26T12:45:28.450Z,26.09
2022-08-26T12:48:31.893Z,26.15
2022-08-26T12:51:33.641Z,26.22
2022-08-26T12:54:35.347Z,26.12
2022-08-26T12:57:37.762Z,26.03
2022-08-26T13:00:42.416Z,26.04
2022-08-26T13:03:45.487Z,26.11
2022-08-26T13:06:47.245Z,26.11
2022-08-26T13:09:49.383Z,26.12
2022-08-26T13:12:51.042Z,26.20
2022-08-26T13:15:54.177Z,26.32
2022-08-26T13:18:57.400Z,26.59
2022-08-26T13:22:00.392Z,26.65
2022-08-26T13:25:02.182Z,26.62
2022-08-26T13:28:03.900Z,26.64
2022-08-26T13:31:07.291Z,26.67
2022-08-26T13:34:09.692Z,26.77
2022-08-26T13:37:11.448Z,26.73
2022-08-26T13:40:13.202Z,26.77
2022-08-26T13:43:14.977Z,26.81
2022-08-26T13:46:18.183Z,26.85
2022-08-26T13:49:19.960Z,26.93
2022-08-26T13:52:25.611Z,26.85
2022-08-26T13:55:32.161Z,26.87
2022-08-26T13:58:33.931Z,26.90
2022-08-26T14:01:37.049Z,26.71
2022-08-26T14:04:38.727Z,26.55
2022-08-26T14:07:40.793Z,26.44
2022-08-26T14:10:42.614Z,26.20
2022-08-26T14:13:44.475Z,26.03
2022-08-26T14:16:58.735Z,25.88
2022-08-26T14:20:01.991Z,25.72
2022-08-26T14:23:13.677Z,25.55
2022-08-26T14:26:21.236Z,25.55
2022-08-26T14:29:30.185Z,25.50
2022-08-26T14:32:33.384Z,25.46
2022-08-26T14:35:35.118Z,25.29
2022-08-26T14:38:36.866Z,25.28
2022-08-26T14:41:41.275Z,25.34
2022-08-26T14:44:44.486Z,25.23
2022-08-26T14:47:47.930Z,25.22
2022-08-26T14:50:49.739Z,25.24
2022-08-26T14:53:51.938Z,25.22
2022-08-26T14:56:55.004Z,25.33
2022-08-26T14:59:56.708Z,25.29
2022-08-26T15:02:59.964Z,25.26
2022-08-26T15:06:01.780Z,25.30
2022-08-26T15:09:04.645Z,25.33
2022-08-26T15:12:06.493Z,25.38
2022-08-26T15:15:09.035Z,25.29
2022-08-26T15:18:12.155Z,25.39
2022-08-26T15:21:13.884Z,25.43
2022-08-26T15:24:16.619Z,25.40
2022-08-26T15:27:18.585Z,25.52
2022-08-26T15:30:20.268Z,25.69
2022-08-26T15:33:23.335Z,25.82
2022-08-26T15:36:25.442Z,26.04
2022-08-26T15:39:27.133Z,26.13
2022-08-26T15:42:29.101Z,26.01
2022-08-26T15:45:32.141Z,25.78
2022-08-26T15:48:35.273Z,25.69
2022-08-26T15:51:45.388Z,25.67
2022-08-26T15:54:47.779Z,25.89
2022-08-26T15:57:51.701Z,26.17
2022-08-26T16:00:54.918Z,26.39
2022-08-26T16:03:58.164Z,26.48
2022-08-26T16:06:59.978Z,26.44
2022-08-26T16:10:01.816Z,26.44
2022-08-26T16:13:03.611Z,26.44
2022-08-26T16:16:05.464Z,26.46
2022-08-26T16:19:08.998Z,26.29
2022-08-26T16:22:10.730Z,26.00
2022-08-26T16:25:12.525Z,25.86
2022-08-26T16:28:14.814Z,25.70
2022-08-26T16:31:28.153Z,25.79
2022-08-26T16:34:31.257Z,25.71
2022-08-26T16:37:35.443Z,25.46
2022-08-26T16:40:39.483Z,25.51
2022-08-26T16:43:41.583Z,25.34
2022-08-26T16:46:43.325Z,25.73
2022-08-26T16:49:46.574Z,25.94
2022-08-26T16:52:50.710Z,26.29
2022-08-26T16:56:00.278Z,26.31
2022-08-26T16:59:02.482Z,26.50
2022-08-26T17:02:04.661Z,26.56
2022-08-26T17:05:08.697Z,26.90
2022-08-26T17:08:10.613Z,27.01
2022-08-26T17:11:12.573Z,27.06
2022-08-26T17:14:14.305Z,27.28
2022-08-26T17:17:16.019Z,27.32
2022-08-26T17:20:19.467Z,27.18
2022-08-26T17:23:21.779Z,27.12
2022-08-26T17:26:25.586Z,26.97
2022-08-26T17:29:27.295Z,26.83
2022-08-26T17:32:29.138Z,26.58
2022-08-26T17:35:32.388Z,26.49
2022-08-26T17:38:34.413Z,26.39
2022-08-26T17:41:36.086Z,26.29
2022-08-26T17:44:37.908Z,26.12
2022-08-26T17:47:39.975Z,26.10
2022-08-26T17:50:43.553Z,25.92
2022-08-26T17:53:51.710Z,25.70
2022-08-26T17:56:53.720Z,25.43
2022-08-26T17:59:56.005Z,25.20
2022-08-26T18:02:57.738Z,25.19
2022-08-26T18:06:01.356Z,25.20
2022-08-26T18:09:03.806Z,25.14
2022-08-26T18:12:05.730Z,25.14
2022-08-26T18:15:08.179Z,24.96
2022-08-26T18:18:09.909Z,24.77
2022-08-26T18:21:13.886Z,24.32
2022-08-26T18:24:15.646Z,24.11
2022-08-26T18:27:17.298Z,24.08
2022-08-26T18:30:20.336Z,24.23
2022-08-26T18:33:22.007Z,24.27
2022-08-26T18:36:26.754Z,24.43
2022-08-26T18:39:28.469Z,24.54
2022-08-26T18:42:30.173Z,24.43
2022-08-26T18:45:31.819Z,24.35
2022-08-26T18:48:34.102Z,24.40
2022-08-26T18:51:37.279Z,24.47
2022-08-26T18:54:39.006Z,24.46
2022-08-26T18:57:40.699Z,24.41
2022-08-26T19:00:42.516Z,24.45
2022-08-26T19:03:44.825Z,24.38
2022-08-26T19:06:48.831Z,24.40
2022-08-26T19:09:53.867Z,24.13
2022-08-26T19:13:00.096Z,24.06
2022-08-26T19:16:02.919Z,23.54
2022-08-26T19:19:05.399Z,23.14
2022-08-26T19:22:08.850Z,23.13
2022-08-26T19:25:10.589Z,23.03
2022-08-26T19:28:13.089Z,23.06
2022-08-26T19:31:14.963Z,23.04
2022-08-26T19:34:18.301Z,23.22
2022-08-26T19:37:24.394Z,23.08
2022-08-26T19:40:26.668Z,23.18
2022-08-26T19:43:29.030Z,22.99
2022-08-26T19:46:34.567Z,22.70
2022-08-26T19:49:36.821Z,22.39
2022-08-26T19:52:40.733Z,22.41
2022-08-26T19:55:42.418Z,22.51
2022-08-26T19:58:44.533Z,22.61
2022-08-26T20:01:46.608Z,22.73
2022-08-26T20:05:02.461Z,22.55
2022-08-26T20:08:05.993Z,22.19
2022-08-26T20:11:09.342Z,21.99
2022-08-26T20:14:13.503Z,21.96
2022-08-26T20:17:15.577Z,22.07
2022-08-26T20:20:32.960Z,22.21
2022-08-26T20:23:37.557Z,22.46
2022-08-26T20:26:40.919Z,22.55
2022-08-26T20:29:42.808Z,22.69
2022-08-26T20:32:44.770Z,22.67
2022-08-26T20:35:46.545Z,22.75
2022-08-26T20:38:50.099Z,22.58
2022-08-26T20:41:51.904Z,22.56
2022-08-26T20:44:54.500Z,22.44
2022-08-26T20:47:56.841Z,22.29
2022-08-26T20:50:59.009Z,22.44
2022-08-26T20:54:02.309Z,22.57
2022-08-26T20:57:04.374Z,22.46
2022-08-26T21:00:06.539Z,22.54
2022-08-26T21:03:08.236Z,22.54
2022-08-26T21:06:10.221Z,22.54
2022-08-26T21:09:14.065Z,22.61
2022-08-26T21:12:17.068Z,22.50
2022-08-26T21:15:18.926Z,22.43
2022-08-26T21:18:20.645Z,21.98
2022-08-26T21:21:25.000Z,21.70
2022-08-26T21:24:28.298Z,21.67
2022-08-26T21:27:30.239Z,21.02
2022-08-26T21:30:32.004Z,21.04
2022-08-26T21:33:34.212Z,21.38
2022-08-26T21:36:36.045Z,21.57
2022-08-26T21:39:39.147Z,21.54
2022-08-26T21:42:41.610Z,21.58
2022-08-26T21:45:43.373Z,21.54
2022-08-26T21:48:50.369Z,21.16
2022-08-26T21:51:52.570Z,20.73
2022-08-26T21:54:57.868Z,20.82
2022-08-26T21:58:00.179Z,21.09
2022-08-26T22:01:02.149Z,21.15
2022-08-26T22:04:04.996Z,21.28
2022-08-26T22:07:06.734Z,21.42
2022-08-26T22:13:11.409Z,21.64
2022-08-26T22:16:17.517Z,21.69
2022-08-26T22:19:19.403Z,21.76
2022-08-26T22:22:21.472Z,21.62
2022-08-26T22:25:23.181Z,21.73
2022-08-26T22:28:26.846Z,21.72
2022-08-26T22:31:38.116Z,21.66
2022-08-26T22:34:40.326Z,21.66
2022-08-26T22:37:42.075Z,21.60
2022-08-26T22:40:44.334Z,21.20
2022-08-26T22:43:47.886Z,21.31
2022-08-26T22:46:50.446Z,21.31
2022-08-26T22:49:52.242Z,21.36
2022-08-26T22:52:53.918Z,21.27
2022-08-26T22:55:55.718Z,21.27
2022-08-26T22:58:58.858Z,21.23
2022-08-26T23:02:00.568Z,21.26
2022-08-26T23:05:02.388Z,21.23
2022-08-26T23:08:04.301Z,21.24
2022-08-26T23:11:07.672Z,21.31
2022-08-26T23:14:10.844Z,21.27
2022-08-26T23:17:12.860Z,21.24
2022-08-26T23:20:16.198Z,21.25
2022-08-26T23:23:17.927Z,21.29
2022-08-26T23:26:19.793Z,21.09
2022-08-26T23:29:22.955Z,21.10
2022-08-26T23:32:24.700Z,20.95
2022-08-26T23:35:26.690Z,20.85
2022-08-26T23:38:28.359Z,20.89
2022-08-26T23:41:31.412Z,20.95
2022-08-26T23:44:34.523Z,21.00
2022-08-26T23:47:36.311Z,20.92
2022-08-26T23:50:38.045Z,20.88
2022-08-26T23:53:39.776Z,20.88
2022-08-26T23:56:41.723Z,20.85
2022-08-26T23:59:44.867Z,20.78
